Time;durP1;ratioP1;P1;durP2;ratioP2;P2;SDS_P1;SDS_P2;PMS_P1;PMS_P2;Temp;Humidity;BMP_temperature;BMP_pressure;BME280_temperature;BME280_humidity;BME280_pressure;Samples;Min_cycle;Max_cycle;Signal;HPM_P1;HPM_P2
2019/04/21 00:00:45;;;;;;;6.5;4.5;;;;;;;6.77;55.27051;95780.05;;;;
2019/04/21 00:01:47;;;;;;;6.4;3.95;;;;;;;6.73;55.31738;95782.81;;;;
2019/04/21 00:02:48;;;;;;;6.4;3.95;;;;;;;6.73;55.31738;95782.81;;;;
2019/04/21 00:03:49;;;;;;;6.4;3.95;;;;;;;6.73;55.31738;95782.81;;;;
2019/04/21 00:04:50;;;;;;;5.2;4.2;;;;;;;6.7;55.3125;95781.95;;;;
2019/04/21 00:05:51;;;;;;;5.2;4.2;;;;;;;6.7;55.3125;95781.95;;;;
2019/04/21 00:06:52;;;;;;;5.2;4.2;;;;;;;6.7;55.3125;95781.95;;;;
2019/04/21 00:07:53;;;;;;;8.500001;4.6;;;;;;;6.64;55.39063;95778.22;;;;
2019/04/21 00:08:55;;;;;;;8.500001;4.6;;;;;;;6.64;55.39063;95778.22;;;;
2019/04/21 00:09:56;;;;;;;8.500001;4.6;;;;;;;6.64;55.39063;95778.22;;;;
2019/04/21 00:10:57;;;;;;;8.500001;4.6;;;;;;;6.64;55.39063;95778.22;;;;
2019/04/21 00:11:58;;;;;;;8.500001;4.6;;;;;;;6.64;55.39063;95778.22;;;;
2019/04/21 00:12:59;;;;;;;5.85;4.349999;;;;;;;6.54;55.50684;95772.41;;;;
2019/04/21 00:14:00;;;;;;;5.85;4.349999;;;;;;;6.54;55.50684;95772.41;;;;
2019/04/21 00:15:01;;;;;;;5.650001;4.15;;;;;;;6.48;55.59375;95769.58;;;;
2019/04/21 00:16:03;;;;;;;5.650001;4.15;;;;;;;6.48;55.59375;95769.58;;;;
2019/04/21 00:17:04;;;;;;;5.650001;4.15;;;;;;;6.48;55.59375;95769.58;;;;
2019/04/21 00:18:17;;;;;;;7.6;4.25;;;;;;;6.43;55.79102;95773.38;;;;
2019/04/21 00:19:26;;;;;;;7.6;4.25;;;;;;;6.43;55.79102;95773.38;;;;
2019/04/21 00:20:27;;;;;;;5.35;4.15;;;;;;;6.39;55.89258;95772.61;;;;
2019/04/21 00:21:29;;;;;;;5.35;4.15;;;;;;;6.39;55.89258;95772.61;;;;
2019/04/21 00:22:30;;;;;;;5.35;4.15;;;;;;;6.39;55.89258;95772.61;;;;
2019/04/21 00:23:31;;;;;;;6.25;4.400001;;;;;;;6.34;55.99121;95772.81;;;;
2019/04/21 00:24:32;;;;;;;6.25;4.400001;;;;;;;6.34;55.99121;95772.81;;;;
2019/04/21 00:25:33;;;;;;;7.4;4.55;;;;;;;6.28;56.03613;95766.88;;;;
2019/04/21 00:26:34;;;;;;;7.4;4.55;;;;;;;6.28;56.03613;95766.88;;;;
2019/04/21 00:27:37;;;;;;;7.4;4.55;;;;;;;6.28;56.03613;95766.88;;;;
2019/04/21 00:28:38;;;;;;;5.349999;4.1;;;;;;;6.22;56.1582;95767.16;;;;
2019/04/21 00:29:39;;;;;;;5.349999;4.1;;;;;;;6.22;56.1582;95767.16;;;;
2019/04/21 00:30:40;;;;;;;5.349999;4.1;;;;;;;6.22;56.1582;95767.16;;;;
2019/04/21 00:31:41;;;;;;;6.199998;4.1;;;;;;;6.17;56.15039;95766.13;;;;
2019/04/21 00:32:42;;;;;;;6.199998;4.1;;;;;;;6.17;56.15039;95766.13;;;;
2019/04/21 00:33:43;;;;;;;6.5;4.25;;;;;;;6.12;56.14453;95760.08;;;;
2019/04/21 00:34:44;;;;;;;6.5;4.25;;;;;;;6.12;56.14453;95760.08;;;;
2019/04/21 00:35:45;;;;;;;6.5;4.25;;;;;;;6.12;56.14453;95760.08;;;;
2019/04/21 00:36:46;;;;;;;7.800002;4.550001;;;;;;;6.07;56.11719;95757.59;;;;
2019/04/21 00:37:47;;;;;;;7.800002;4.550001;;;;;;;6.07;56.11719;95757.59;;;;
2019/04/21 00:38:49;;;;;;;6.95;4.5;;;;;;;6.02;56.11035;95760.88;;;;
2019/04/21 00:39:50;;;;;;;6.95;4.5;;;;;;;6.02;56.11035;95760.88;;;;
2019/04/21 00:40:51;;;;;;;6.95;4.5;;;;;;;6.02;56.11035;95760.88;;;;
2019/04/21 00:41:52;;;;;;;6.1;4.3;;;;;;;5.96;56.0918;95751.84;;;;
2019/04/21 00:42:53;;;;;;;6.1;4.3;;;;;;;5.96;56.0918;95751.84;;;;
2019/04/21 00:43:54;;;;;;;6.9;4.3;;;;;;;5.92;56.27734;95755.52;;;;
2019/04/21 00:44:55;;;;;;;6.9;4.3;;;;;;;5.92;56.27734;95755.52;;;;
2019/04/21 00:45:56;;;;;;;6.9;4.3;;;;;;;5.92;56.27734;95755.52;;;;
2019/04/21 00:46:58;;;;;;;6.799999;4.4;;;;;;;5.88;56.24023;95748.49;;;;
2019/04/21 00:47:59;;;;;;;6.799999;4.4;;;;;;;5.88;56.24023;95748.49;;;;
2019/04/21 00:49:01;;;;;;;6.799999;4.4;;;;;;;5.88;56.24023;95748.49;;;;
2019/04/21 00:50:02;;;;;;;6.149999;4.6;;;;;;;5.83;56.28711;95743.7;;;;
2019/04/21 00:51:03;;;;;;;6.149999;4.6;;;;;;;5.83;56.28711;95743.7;;;;
2019/04/21 00:52:09;;;;;;;7.15;4.149999;;;;;;;5.79;56.27148;95741.48;;;;
2019/04/21 00:53:16;;;;;;;7.15;4.149999;;;;;;;5.79;56.27148;95741.48;;;;
2019/04/21 00:54:17;;;;;;;7.15;4.149999;;;;;;;5.79;56.27148;95741.48;;;;
2019/04/21 00:55:22;;;;;;;5.199999;4.55;;;;;;;5.77;56.63086;95737.36;;;;
2019/04/21 00:56:23;;;;;;;5.199999;4.55;;;;;;;5.77;56.63086;95737.36;;;;
2019/04/21 00:57:24;;;;;;;5.6;4.3;;;;;;;5.74;56.61523;95738.14;;;;
2019/04/21 00:58:25;;;;;;;5.6;4.3;;;;;;;5.74;56.61523;95738.14;;;;
2019/04/21 00:59:26;;;;;;;5.6;4.3;;;;;;;5.74;56.61523;95738.14;;;;
2019/04/21 01:00:27;;;;;;;5.6;4.3;;;;;;;5.74;56.61523;95738.14;;;;
2019/04/21 01:01:28;;;;;;;5.6;4.3;;;;;;;5.74;56.61523;95738.14;;;;
2019/04/21 01:02:29;;;;;;;5.6;4.3;;;;;;;5.74;56.61523;95738.14;;;;
2019/04/21 01:03:30;;;;;;;6.099999;4.3;;;;;;;5.65;56.64648;95739.73;;;;
2019/04/21 01:04:32;;;;;;;6.099999;4.3;;;;;;;5.65;56.64648;95739.73;;;;
2019/04/21 01:05:33;;;;;;;6.099999;4.3;;;;;;;5.65;56.64648;95739.73;;;;
2019/04/21 01:06:34;;;;;;;6.099999;4.3;;;;;;;5.65;56.64648;95739.73;;;;
2019/04/21 01:07:35;;;;;;;6.099999;4.3;;;;;;;5.65;56.64648;95739.73;;;;
2019/04/21 01:08:36;;;;;;;5;4.1;;;;;;;5.55;56.63477;95738.33;;;;
2019/04/21 01:09:37;;;;;;;5;4.1;;;;;;;5.55;56.63477;95738.33;;;;
2019/04/21 01:10:39;;;;;;;5.649999;4;;;;;;;5.51;56.73438;95740.23;;;;
2019/04/21 01:11:40;;;;;;;5.649999;4;;;;;;;5.51;56.73438;95740.23;;;;
2019/04/21 01:12:41;;;;;;;5.649999;4;;;;;;;5.51;56.73438;95740.23;;;;
2019/04/21 01:13:42;;;;;;;6.1;4.2;;;;;;;5.47;56.79297;95736.7;;;;
2019/04/21 01:14:43;;;;;;;6.1;4.2;;;;;;;5.47;56.79297;95736.7;;;;
2019/04/21 01:15:44;;;;;;;6.45;4.1;;;;;;;5.42;56.8291;95732.44;;;;
2019/04/21 01:16:45;;;;;;;6.45;4.1;;;;;;;5.42;56.8291;95732.44;;;;
2019/04/21 01:17:46;;;;;;;6.45;4.1;;;;;;;5.42;56.8291;95732.44;;;;
2019/04/21 01:18:48;;;;;;;6.45;4.1;;;;;;;5.42;56.8291;95732.44;;;;
2019/04/21 01:19:49;;;;;;;6.45;4.1;;;;;;;5.42;56.8291;95732.44;;;;
2019/04/21 01:20:50;;;;;;;6.45;4.1;;;;;;;5.42;56.8291;95732.44;;;;
2019/04/21 01:21:51;;;;;;;6.699999;4.05;;;;;;;5.34;56.9043;95733.94;;;;
2019/04/21 01:22:53;;;;;;;6.699999;4.05;;;;;;;5.34;56.9043;95733.94;;;;
2019/04/21 01:23:54;;;;;;;6.25;3.95;;;;;;;5.3;57.00488;95727.72;;;;
2019/04/21 01:24:55;;;;;;;6.25;3.95;;;;;;;5.3;57.00488;95727.72;;;;
2019/04/21 01:25:56;;;;;;;6.25;3.95;;;;;;;5.3;57.00488;95727.72;;;;
2019/04/21 01:26:58;;;;;;;5.900001;4.2;;;;;;;5.26;57.0957;95729.53;;;;
2019/04/21 01:27:59;;;;;;;5.900001;4.2;;;;;;;5.26;57.0957;95729.53;;;;
2019/04/21 01:29:00;;;;;;;5.7;4.25;;;;;;;5.22;57.16504;95725.16;;;;
2019/04/21 01:30:01;;;;;;;5.7;4.25;;;;;;;5.22;57.16504;95725.16;;;;
2019/04/21 01:31:05;;;;;;;5.7;4.25;;;;;;;5.22;57.16504;95725.16;;;;
2019/04/21 01:32:06;;;;;;;5.3;4.3;;;;;;;5.19;57.37207;95725.56;;;;
2019/04/21 01:33:07;;;;;;;5.3;4.3;;;;;;;5.19;57.37207;95725.56;;;;
2019/04/21 01:34:08;;;;;;;5.3;4.3;;;;;;;5.19;57.37207;95725.56;;;;
2019/04/21 01:35:09;;;;;;;4.900001;4.3;;;;;;;5.16;57.57031;95716.16;;;;
2019/04/21 01:36:10;;;;;;;4.900001;4.3;;;;;;;5.16;57.57031;95716.16;;;;
2019/04/21 01:37:11;;;;;;;5.500001;4.4;;;;;;;5.12;57.86133;95710.88;;;;
2019/04/21 01:38:13;;;;;;;5.500001;4.4;;;;;;;5.12;57.86133;95710.88;;;;
2019/04/21 01:39:14;;;;;;;5.500001;4.4;;;;;;;5.12;57.86133;95710.88;;;;
2019/04/21 01:40:15;;;;;;;5.5;4;;;;;;;5.08;58.06934;95710.42;;;;
2019/04/21 01:41:17;;;;;;;5.5;4;;;;;;;5.08;58.06934;95710.42;;;;
2019/04/21 01:42:18;;;;;;;5.300001;3.95;;;;;;;5.04;58.24512;95707.81;;;;
2019/04/21 01:43:19;;;;;;;5.300001;3.95;;;;;;;5.04;58.24512;95707.81;;;;
2019/04/21 01:44:20;;;;;;;5.300001;3.95;;;;;;;5.04;58.24512;95707.81;;;;
2019/04/21 01:45:21;;;;;;;5.199999;4.05;;;;;;;5.01;58.36719;95707.36;;;;
2019/04/21 01:46:22;;;;;;;5.199999;4.05;;;;;;;5.01;58.36719;95707.36;;;;
2019/04/21 01:47:24;;;;;;;5.8;4.3;;;;;;;4.95;58.49707;95710.29;;;;
2019/04/21 01:48:25;;;;;;;5.8;4.3;;;;;;;4.95;58.49707;95710.29;;;;
2019/04/21 01:49:26;;;;;;;5.8;4.3;;;;;;;4.95;58.49707;95710.29;;;;
2019/04/21 01:50:27;;;;;;;5.8;4.3;;;;;;;4.95;58.49707;95710.29;;;;
2019/04/21 01:51:29;;;;;;;5.8;4.3;;;;;;;4.95;58.49707;95710.29;;;;
2019/04/21 01:52:31;;;;;;;5.8;4.3;;;;;;;4.95;58.49707;95710.29;;;;
2019/04/21 01:53:40;;;;;;;5.8;4.3;;;;;;;4.95;58.49707;95710.29;;;;
2019/04/21 01:54:54;;;;;;;5.8;4.3;;;;;;;4.95;58.49707;95710.29;;;;
2019/04/21 01:56:05;;;;;;;5.8;4.3;;;;;;;4.95;58.49707;95710.29;;;;
2019/04/21 01:57:11;;;;;;;5.8;4.3;;;;;;;4.95;58.49707;95710.29;;;;
2019/04/21 01:58:15;;;;;;;6.05;3.85;;;;;;;4.43;57.3877;95709.72;;;;
2019/04/21 01:59:17;;;;;;;6.05;3.85;;;;;;;4.43;57.3877;95709.72;;;;
2019/04/21 02:00:23;;;;;;;6.05;3.85;;;;;;;4.43;57.3877;95709.72;;;;
2019/04/21 02:01:24;;;;;;;6.8;3.8;;;;;;;4.39;58.03906;95708.96;;;;
2019/04/21 02:02:25;;;;;;;6.8;3.8;;;;;;;4.39;58.03906;95708.96;;;;
2019/04/21 02:03:26;;;;;;;4.75;4.05;;;;;;;4.39;58.50488;95705.76;;;;
2019/04/21 02:04:28;;;;;;;4.75;4.05;;;;;;;4.39;58.50488;95705.76;;;;
2019/04/21 02:05:29;;;;;;;4.75;4.05;;;;;;;4.39;58.50488;95705.76;;;;
2019/04/21 02:06:30;;;;;;;5.65;4.05;;;;;;;4.4;58.84668;95707.43;;;;
2019/04/21 02:07:31;;;;;;;5.65;4.05;;;;;;;4.4;58.84668;95707.43;;;;
2019/04/21 02:08:32;;;;;;;6.799999;4;;;;;;;4.41;59.07031;95705.98;;;;
2019/04/21 02:09:33;;;;;;;6.799999;4;;;;;;;4.41;59.07031;95705.98;;;;
2019/04/21 02:10:35;;;;;;;6.799999;4;;;;;;;4.41;59.07031;95705.98;;;;
2019/04/21 02:11:36;;;;;;;5.699999;4.45;;;;;;;4.4;59.32227;95704.35;;;;
2019/04/21 02:12:37;;;;;;;5.699999;4.45;;;;;;;4.4;59.32227;95704.35;;;;
2019/04/21 02:13:38;;;;;;;5.699999;4.45;;;;;;;4.4;59.32227;95704.35;;;;
2019/04/21 02:14:39;;;;;;;5.699999;4.45;;;;;;;4.4;59.32227;95704.35;;;;
2019/04/21 02:15:40;;;;;;;5.699999;4.45;;;;;;;4.4;59.32227;95704.35;;;;
2019/04/21 02:16:41;;;;;;;5.699999;4.45;;;;;;;4.4;59.32227;95704.35;;;;
2019/04/21 02:17:42;;;;;;;5.699999;4.45;;;;;;;4.4;59.32227;95704.35;;;;
2019/04/21 02:18:44;;;;;;;5.699999;4.45;;;;;;;4.4;59.32227;95704.35;;;;
2019/04/21 02:19:45;;;;;;;5.699999;4.45;;;;;;;4.4;59.32227;95704.35;;;;
2019/04/21 02:20:46;;;;;;;5.699999;4.45;;;;;;;4.4;59.32227;95704.35;;;;
2019/04/21 02:21:47;;;;;;;4.95;3.85;;;;;;;3.98;58.14258;95694.35;;;;
2019/04/21 02:22:48;;;;;;;4.95;3.85;;;;;;;3.98;58.14258;95694.35;;;;
2019/04/21 02:23:50;;;;;;;4.95;3.85;;;;;;;3.98;58.14258;95694.35;;;;
2019/04/21 02:24:51;;;;;;;5.6;4.05;;;;;;;3.95;58.83789;95695.15;;;;
2019/04/21 02:25:52;;;;;;;5.6;4.05;;;;;;;3.95;58.83789;95695.15;;;;
2019/04/21 02:26:53;;;;;;;5.6;4.05;;;;;;;3.95;58.83789;95695.15;;;;
2019/04/21 02:27:54;;;;;;;5.65;4.05;;;;;;;3.98;59.31836;95693.44;;;;
2019/04/21 02:28:55;;;;;;;5.65;4.05;;;;;;;3.98;59.31836;95693.44;;;;
2019/04/21 02:29:57;;;;;;;5.35;4.1;;;;;;;4.01;59.70313;95697.6;;;;
2019/04/21 02:30:58;;;;;;;5.35;4.1;;;;;;;4.01;59.70313;95697.6;;;;
2019/04/21 02:31:59;;;;;;;5.35;4.1;;;;;;;4.01;59.70313;95697.6;;;;
2019/04/21 02:33:00;;;;;;;6.25;4.3;;;;;;;4.05;59.88867;95691.79;;;;
2019/04/21 02:34:01;;;;;;;6.25;4.3;;;;;;;4.05;59.88867;95691.79;;;;
2019/04/21 02:35:02;;;;;;;4.65;3.900001;;;;;;;4.08;60.13672;95690.91;;;;
2019/04/21 02:36:04;;;;;;;4.65;3.900001;;;;;;;4.08;60.13672;95690.91;;;;
2019/04/21 02:37:05;;;;;;;4.65;3.900001;;;;;;;4.08;60.13672;95690.91;;;;
2019/04/21 02:38:06;;;;;;;4.65;3.900001;;;;;;;4.08;60.13672;95690.91;;;;
2019/04/21 02:39:08;;;;;;;4.65;3.900001;;;;;;;4.08;60.13672;95690.91;;;;
2019/04/21 02:40:09;;;;;;;4.65;3.900001;;;;;;;4.08;60.13672;95690.91;;;;
2019/04/21 02:41:10;;;;;;;4.65;3.900001;;;;;;;4.08;60.13672;95690.91;;;;
2019/04/21 02:42:11;;;;;;;4.65;3.900001;;;;;;;4.08;60.13672;95690.91;;;;
2019/04/21 02:43:12;;;;;;;4.65;3.900001;;;;;;;4.08;60.13672;95690.91;;;;
2019/04/21 02:44:13;;;;;;;4.65;3.900001;;;;;;;4.08;60.13672;95690.91;;;;
2019/04/21 02:45:14;;;;;;;4.65;3.900001;;;;;;;4.08;60.13672;95690.91;;;;
2019/04/21 02:46:15;;;;;;;4.95;3.85;;;;;;;3.72;58.83691;95677.98;;;;
2019/04/21 02:47:17;;;;;;;4.95;3.85;;;;;;;3.72;58.83691;95677.98;;;;
2019/04/21 02:48:18;;;;;;;5.750001;4.400001;;;;;;;3.71;59.45996;95685.24;;;;
2019/04/21 02:49:19;;;;;;;5.750001;4.400001;;;;;;;3.71;59.45996;95685.24;;;;
2019/04/21 02:50:20;;;;;;;5.750001;4.400001;;;;;;;3.71;59.45996;95685.24;;;;
2019/04/21 02:51:21;;;;;;;5.849999;4.199999;;;;;;;3.75;59.81543;95677.19;;;;
2019/04/21 02:52:22;;;;;;;5.849999;4.199999;;;;;;;3.75;59.81543;95677.19;;;;
2019/04/21 02:53:23;;;;;;;5.849999;4.199999;;;;;;;3.75;59.81543;95677.19;;;;
2019/04/21 02:54:24;;;;;;;6.550001;4.4;;;;;;;3.78;60.10547;95672.3;;;;
2019/04/21 02:55:25;;;;;;;6.550001;4.4;;;;;;;3.78;60.10547;95672.3;;;;
2019/04/21 02:56:26;;;;;;;5.25;4.15;;;;;;;3.82;60.29004;95668.26;;;;
2019/04/21 02:57:28;;;;;;;5.25;4.15;;;;;;;3.82;60.29004;95668.26;;;;
2019/04/21 02:58:34;;;;;;;5.25;4.15;;;;;;;3.82;60.29004;95668.26;;;;
2019/04/21 02:59:39;;;;;;;5.1;4.1;;;;;;;3.85;60.49414;95672;;;;
2019/04/21 03:06:05;;;;;;;5.1;4.1;;;;;;;3.85;60.49414;95672;;;;
2019/04/21 03:07:22;;;;;;;5.1;4.1;;;;;;;3.85;60.49414;95672;;;;
2019/04/21 03:08:23;;;;;;;5.1;4.1;;;;;;;3.85;60.49414;95672;;;;
2019/04/21 03:09:24;;;;;;;6.65;3.85;;;;;;;3.48;59.30176;95661.72;;;;
2019/04/21 03:10:25;;;;;;;6.65;3.85;;;;;;;3.48;59.30176;95661.72;;;;
2019/04/21 03:11:26;;;;;;;6.65;3.85;;;;;;;3.48;59.30176;95661.72;;;;
2019/04/21 03:12:27;;;;;;;6.25;4.199999;;;;;;;3.46;60.01855;95660.66;;;;
2019/04/21 03:13:28;;;;;;;6.25;4.199999;;;;;;;3.46;60.01855;95660.66;;;;
2019/04/21 03:14:29;;;;;;;6.25;4.199999;;;;;;;3.46;60.01855;95660.66;;;;
2019/04/21 03:15:30;;;;;;;6.25;4.199999;;;;;;;3.46;60.01855;95660.66;;;;
2019/04/21 03:16:32;;;;;;;6.25;4.199999;;;;;;;3.46;60.01855;95660.66;;;;
2019/04/21 03:17:33;;;;;;;6.25;4.199999;;;;;;;3.46;60.01855;95660.66;;;;
2019/04/21 03:18:34;;;;;;;6.25;4.199999;;;;;;;3.46;60.01855;95660.66;;;;
2019/04/21 03:19:35;;;;;;;6.25;4.199999;;;;;;;3.46;60.01855;95660.66;;;;
2019/04/21 03:20:36;;;;;;;6.25;4.199999;;;;;;;3.46;60.01855;95660.66;;;;
2019/04/21 03:21:37;;;;;;;6.25;4.199999;;;;;;;3.46;60.01855;95660.66;;;;
2019/04/21 03:22:38;;;;;;;6;4.199999;;;;;;;3.24;59.20508;95652.73;;;;
2019/04/21 03:23:39;;;;;;;6;4.199999;;;;;;;3.24;59.20508;95652.73;;;;
2019/04/21 03:24:40;;;;;;;6;4.199999;;;;;;;3.24;59.20508;95652.73;;;;
2019/04/21 03:25:41;;;;;;;6.849999;4.05;;;;;;;3.25;59.98926;95651.22;;;;
2019/04/21 03:26:42;;;;;;;6.849999;4.05;;;;;;;3.25;59.98926;95651.22;;;;
2019/04/21 03:27:43;;;;;;;6.849999;4.05;;;;;;;3.25;59.98926;95651.22;;;;
2019/04/21 03:28:44;;;;;;;6.849999;4.05;;;;;;;3.25;59.98926;95651.22;;;;
2019/04/21 03:29:45;;;;;;;6.849999;4.05;;;;;;;3.25;59.98926;95651.22;;;;
2019/04/21 03:30:47;;;;;;;6.849999;4.05;;;;;;;3.25;59.98926;95651.22;;;;
2019/04/21 03:31:48;;;;;;;6.849999;4.05;;;;;;;3.25;59.98926;95651.22;;;;
2019/04/21 03:32:49;;;;;;;6.849999;4.05;;;;;;;3.25;59.98926;95651.22;;;;
2019/04/21 03:33:50;;;;;;;6.849999;4.05;;;;;;;3.25;59.98926;95651.22;;;;
2019/04/21 03:34:51;;;;;;;6.849999;4.05;;;;;;;3.25;59.98926;95651.22;;;;
2019/04/21 03:35:52;;;;;;;4.699999;3.65;;;;;;;3.11;59.20898;95649.36;;;;
2019/04/21 03:36:53;;;;;;;4.699999;3.65;;;;;;;3.11;59.20898;95649.36;;;;
2019/04/21 03:37:54;;;;;;;4.699999;3.65;;;;;;;3.11;59.20898;95649.36;;;;
2019/04/21 03:38:55;;;;;;;5.900001;3.95;;;;;;;3.13;59.94043;95645.06;;;;
2019/04/21 03:39:56;;;;;;;5.900001;3.95;;;;;;;3.13;59.94043;95645.06;;;;
2019/04/21 03:40:57;;;;;;;5.900001;3.95;;;;;;;3.13;59.94043;95645.06;;;;
2019/04/21 03:41:58;;;;;;;5.900001;3.95;;;;;;;3.13;59.94043;95645.06;;;;
2019/04/21 03:42:59;;;;;;;5.900001;3.95;;;;;;;3.13;59.94043;95645.06;;;;
2019/04/21 03:44:01;;;;;;;5.900001;3.95;;;;;;;3.13;59.94043;95645.06;;;;
2019/04/21 03:45:02;;;;;;;5.900001;3.95;;;;;;;3.13;59.94043;95645.06;;;;
2019/04/21 03:46:04;;;;;;;5.900001;3.95;;;;;;;3.13;59.94043;95645.06;;;;
2019/04/21 03:47:05;;;;;;;5.900001;3.95;;;;;;;3.13;59.94043;95645.06;;;;
2019/04/21 03:48:06;;;;;;;5.900001;3.95;;;;;;;3.13;59.94043;95645.06;;;;
2019/04/21 03:49:07;;;;;;;5.05;3.95;;;;;;;3.01;59.07715;95637.68;;;;
2019/04/21 03:50:08;;;;;;;5.05;3.95;;;;;;;3.01;59.07715;95637.68;;;;
2019/04/21 03:51:09;;;;;;;5.05;3.95;;;;;;;3.01;59.07715;95637.68;;;;
2019/04/21 03:52:10;;;;;;;6.1;4.3;;;;;;;3.02;59.79785;95637.11;;;;
2019/04/21 03:53:11;;;;;;;6.1;4.3;;;;;;;3.02;59.79785;95637.11;;;;
2019/04/21 03:54:12;;;;;;;6.1;4.3;;;;;;;3.02;59.79785;95637.11;;;;
2019/04/21 03:56:16;;;;;;;6.1;4.3;;;;;;;3.02;59.79785;95637.11;;;;
2019/04/21 03:57:18;;;;;;;6.1;4.3;;;;;;;3.02;59.79785;95637.11;;;;
2019/04/21 03:58:19;;;;;;;6.1;4.3;;;;;;;3.02;59.79785;95637.11;;;;
2019/04/21 03:59:37;;;;;;;6.1;4.3;;;;;;;3.02;59.79785;95637.11;;;;
2019/04/21 04:00:43;;;;;;;6.1;4.3;;;;;;;3.02;59.79785;95637.11;;;;
2019/04/21 04:01:50;;;;;;;6.1;4.3;;;;;;;3.02;59.79785;95637.11;;;;
2019/04/21 04:02:57;;;;;;;5.7;4.05;;;;;;;2.85;59.02441;95629.75;;;;
2019/04/21 04:04:04;;;;;;;5.7;4.05;;;;;;;2.85;59.02441;95629.75;;;;
2019/04/21 04:05:21;;;;;;;5.7;4.05;;;;;;;2.85;59.02441;95629.75;;;;
2019/04/21 04:06:30;;;;;;;5.1;4.1;;;;;;;2.87;59.87207;95635.32;;;;
2019/04/21 04:07:31;;;;;;;5.1;4.1;;;;;;;2.87;59.87207;95635.32;;;;
2019/04/21 04:08:37;;;;;;;5.1;4.1;;;;;;;2.87;59.87207;95635.32;;;;
2019/04/21 04:09:39;;;;;;;5.1;4.1;;;;;;;2.87;59.87207;95635.32;;;;
2019/04/21 04:10:40;;;;;;;5.1;4.1;;;;;;;2.87;59.87207;95635.32;;;;
2019/04/21 04:11:41;;;;;;;5.1;4.1;;;;;;;2.87;59.87207;95635.32;;;;
2019/04/21 04:12:42;;;;;;;5.1;4.1;;;;;;;2.87;59.87207;95635.32;;;;
2019/04/21 04:13:43;;;;;;;5.1;4.1;;;;;;;2.87;59.87207;95635.32;;;;
2019/04/21 04:14:44;;;;;;;5.1;4.1;;;;;;;2.87;59.87207;95635.32;;;;
2019/04/21 04:15:45;;;;;;;5.450001;4.25;;;;;;;2.77;59.53125;95638.72;;;;
2019/04/21 04:16:46;;;;;;;5.450001;4.25;;;;;;;2.77;59.53125;95638.72;;;;
2019/04/21 04:17:47;;;;;;;5.450001;4.25;;;;;;;2.77;59.53125;95638.72;;;;
2019/04/21 04:18:48;;;;;;;6.499999;3.75;;;;;;;2.79;60.30469;95638.46;;;;
2019/04/21 04:19:50;;;;;;;6.499999;3.75;;;;;;;2.79;60.30469;95638.46;;;;
2019/04/21 04:20:51;;;;;;;6.499999;3.75;;;;;;;2.79;60.30469;95638.46;;;;
2019/04/21 04:21:52;;;;;;;6.499999;3.75;;;;;;;2.79;60.30469;95638.46;;;;
2019/04/21 04:22:53;;;;;;;6.499999;3.75;;;;;;;2.79;60.30469;95638.46;;;;
2019/04/21 04:23:54;;;;;;;6.499999;3.75;;;;;;;2.79;60.30469;95638.46;;;;
2019/04/21 04:24:55;;;;;;;6.499999;3.75;;;;;;;2.79;60.30469;95638.46;;;;
2019/04/21 04:25:56;;;;;;;6.499999;3.75;;;;;;;2.79;60.30469;95638.46;;;;
2019/04/21 04:26:57;;;;;;;6.499999;3.75;;;;;;;2.79;60.30469;95638.46;;;;
2019/04/21 04:27:58;;;;;;;6.499999;3.75;;;;;;;2.79;60.30469;95638.46;;;;
2019/04/21 04:28:59;;;;;;;4.75;3.65;;;;;;;2.76;59.65527;95633.99;;;;
2019/04/21 04:30:01;;;;;;;4.75;3.65;;;;;;;2.76;59.65527;95633.99;;;;
2019/04/21 04:31:02;;;;;;;4.75;3.65;;;;;;;2.76;59.65527;95633.99;;;;
2019/04/21 04:32:03;;;;;;;5.6;4.149999;;;;;;;2.82;60.29785;95639.45;;;;
2019/04/21 04:33:04;;;;;;;5.6;4.149999;;;;;;;2.82;60.29785;95639.45;;;;
2019/04/21 04:34:05;;;;;;;5.6;4.149999;;;;;;;2.82;60.29785;95639.45;;;;
2019/04/21 04:35:06;;;;;;;5.6;4.149999;;;;;;;2.82;60.29785;95639.45;;;;
2019/04/21 04:36:07;;;;;;;5.6;4.149999;;;;;;;2.82;60.29785;95639.45;;;;
2019/04/21 04:37:09;;;;;;;5.6;4.149999;;;;;;;2.82;60.29785;95639.45;;;;
2019/04/21 04:38:11;;;;;;;5.6;4.149999;;;;;;;2.82;60.29785;95639.45;;;;
2019/04/21 04:39:20;;;;;;;5.6;4.149999;;;;;;;2.82;60.29785;95639.45;;;;
2019/04/21 04:40:51;;;;;;;5.6;4.149999;;;;;;;2.82;60.29785;95639.45;;;;
2019/04/21 04:41:59;;;;;;;5.6;4.149999;;;;;;;2.82;60.29785;95639.45;;;;
2019/04/21 04:43:00;;;;;;;6.45;4.3;;;;;;;2.83;59.45313;95639.84;;;;
2019/04/21 04:44:01;;;;;;;6.45;4.3;;;;;;;2.83;59.45313;95639.84;;;;
2019/04/21 04:45:02;;;;;;;6.55;4.6;;;;;;;2.88;60.20117;95633.37;;;;
2019/04/21 04:46:04;;;;;;;6.55;4.6;;;;;;;2.88;60.20117;95633.37;;;;
2019/04/21 04:47:05;;;;;;;6.55;4.6;;;;;;;2.88;60.20117;95633.37;;;;
2019/04/21 04:48:06;;;;;;;6.55;4.6;;;;;;;2.88;60.20117;95633.37;;;;
2019/04/21 04:49:07;;;;;;;6.55;4.6;;;;;;;2.88;60.20117;95633.37;;;;
2019/04/21 04:50:08;;;;;;;6.55;4.6;;;;;;;2.88;60.20117;95633.37;;;;
2019/04/21 04:51:10;;;;;;;6.55;4.6;;;;;;;2.88;60.20117;95633.37;;;;
2019/04/21 04:52:11;;;;;;;6.55;4.6;;;;;;;2.88;60.20117;95633.37;;;;
2019/04/21 04:53:12;;;;;;;6.55;4.6;;;;;;;2.88;60.20117;95633.37;;;;
2019/04/21 04:54:13;;;;;;;6.55;4.6;;;;;;;2.88;60.20117;95633.37;;;;
2019/04/21 04:55:14;;;;;;;6.55;4.6;;;;;;;2.88;60.20117;95633.37;;;;
2019/04/21 04:56:15;;;;;;;6.349999;4.950001;;;;;;;2.95;59.47168;95618.31;;;;
2019/04/21 04:57:16;;;;;;;6.349999;4.950001;;;;;;;2.95;59.47168;95618.31;;;;
2019/04/21 04:58:17;;;;;;;6.55;4.75;;;;;;;3.03;60.20996;95610.33;;;;
2019/04/21 04:59:18;;;;;;;6.55;4.75;;;;;;;3.03;60.20996;95610.33;;;;
2019/04/21 05:00:19;;;;;;;6.55;4.75;;;;;;;3.03;60.20996;95610.33;;;;
2019/04/21 05:01:20;;;;;;;6.55;4.75;;;;;;;3.03;60.20996;95610.33;;;;
2019/04/21 05:02:21;;;;;;;6.55;4.75;;;;;;;3.03;60.20996;95610.33;;;;
2019/04/21 05:03:22;;;;;;;6.55;4.75;;;;;;;3.03;60.20996;95610.33;;;;
2019/04/21 05:04:23;;;;;;;6.55;4.75;;;;;;;3.03;60.20996;95610.33;;;;
2019/04/21 05:05:24;;;;;;;6.55;4.75;;;;;;;3.03;60.20996;95610.33;;;;
2019/04/21 05:06:57;;;;;;;6.55;4.75;;;;;;;3.03;60.20996;95610.33;;;;
2019/04/21 05:07:58;;;;;;;6.55;4.75;;;;;;;3.03;60.20996;95610.33;;;;
2019/04/21 05:08:59;;;;;;;5.55;4.5;;;;;;;3.17;59.40723;95613.94;;;;
2019/04/21 05:10:00;;;;;;;5.55;4.5;;;;;;;3.17;59.40723;95613.94;;;;
2019/04/21 05:11:02;;;;;;;5.55;4.5;;;;;;;3.17;59.40723;95613.94;;;;
2019/04/21 05:12:03;;;;;;;5.35;4.849999;;;;;;;3.26;60.14941;95613.25;;;;
2019/04/21 05:13:04;;;;;;;5.35;4.849999;;;;;;;3.26;60.14941;95613.25;;;;
2019/04/21 05:14:05;;;;;;;5.35;4.849999;;;;;;;3.26;60.14941;95613.25;;;;
2019/04/21 05:15:06;;;;;;;5.35;4.849999;;;;;;;3.26;60.14941;95613.25;;;;
2019/04/21 05:16:07;;;;;;;5.35;4.849999;;;;;;;3.26;60.14941;95613.25;;;;
2019/04/21 05:17:08;;;;;;;5.35;4.849999;;;;;;;3.26;60.14941;95613.25;;;;
2019/04/21 05:18:09;;;;;;;5.35;4.849999;;;;;;;3.26;60.14941;95613.25;;;;
2019/04/21 05:19:10;;;;;;;5.35;4.849999;;;;;;;3.26;60.14941;95613.25;;;;
2019/04/21 05:20:11;;;;;;;5.35;4.849999;;;;;;;3.26;60.14941;95613.25;;;;
2019/04/21 05:21:12;;;;;;;5.35;4.849999;;;;;;;3.26;60.14941;95613.25;;;;
2019/04/21 05:22:13;;;;;;;6;4.75;;;;;;;3.61;59.33105;95606.36;;;;
2019/04/21 05:23:14;;;;;;;6;4.75;;;;;;;3.61;59.33105;95606.36;;;;
2019/04/21 05:24:16;;;;;;;6;4.75;;;;;;;3.61;59.33105;95606.36;;;;
2019/04/21 05:25:17;;;;;;;8.9;4.600001;;;;;;;3.78;59.93652;95613.56;;;;
2019/04/21 05:26:18;;;;;;;8.9;4.600001;;;;;;;3.78;59.93652;95613.56;;;;
2019/04/21 05:27:22;;;;;;;8.9;4.600001;;;;;;;3.78;59.93652;95613.56;;;;
2019/04/21 05:28:23;;;;;;;8.9;4.600001;;;;;;;3.78;59.93652;95613.56;;;;
2019/04/21 05:29:27;;;;;;;8.9;4.600001;;;;;;;3.78;59.93652;95613.56;;;;
2019/04/21 05:30:34;;;;;;;8.9;4.600001;;;;;;;3.78;59.93652;95613.56;;;;
2019/04/21 05:31:43;;;;;;;8.9;4.600001;;;;;;;3.78;59.93652;95613.56;;;;
2019/04/21 05:33:20;;;;;;;8.9;4.600001;;;;;;;3.78;59.93652;95613.56;;;;
2019/04/21 05:34:26;;;;;;;8.9;4.600001;;;;;;;3.78;59.93652;95613.56;;;;
2019/04/21 05:40:36;;;;;;;5.65;4.8;;;;;;;4.52;60.23047;95611;;;;
2019/04/21 05:41:37;;;;;;;5.65;4.8;;;;;;;4.52;60.23047;95611;;;;
2019/04/21 05:42:38;;;;;;;5.65;4.8;;;;;;;4.52;60.23047;95611;;;;
2019/04/21 05:43:39;;;;;;;5.65;4.8;;;;;;;4.52;60.23047;95611;;;;
2019/04/21 05:44:40;;;;;;;5.65;4.8;;;;;;;4.52;60.23047;95611;;;;
2019/04/21 05:45:41;;;;;;;5.65;4.8;;;;;;;4.52;60.23047;95611;;;;
2019/04/21 05:46:42;;;;;;;5.65;4.8;;;;;;;4.52;60.23047;95611;;;;
2019/04/21 05:47:48;;;;;;;5.65;4.8;;;;;;;4.52;60.23047;95611;;;;
2019/04/21 05:48:55;;;;;;;6.800001;4.75;;;;;;;5.09;58.82324;95601.12;;;;
2019/04/21 05:49:57;;;;;;;6.800001;4.75;;;;;;;5.09;58.82324;95601.12;;;;
2019/04/21 05:50:58;;;;;;;6.800001;4.75;;;;;;;5.09;58.82324;95601.12;;;;
2019/04/21 05:51:59;;;;;;;7.600001;5;;;;;;;5.29;59.26563;95606.5;;;;
2019/04/21 05:53:00;;;;;;;7.600001;5;;;;;;;5.29;59.26563;95606.5;;;;
2019/04/21 05:54:01;;;;;;;7.600001;5;;;;;;;5.29;59.26563;95606.5;;;;
2019/04/21 05:55:03;;;;;;;7.600001;5;;;;;;;5.29;59.26563;95606.5;;;;
2019/04/21 05:56:04;;;;;;;7.600001;5;;;;;;;5.29;59.26563;95606.5;;;;
2019/04/21 05:57:05;;;;;;;7.600001;5;;;;;;;5.29;59.26563;95606.5;;;;
2019/04/21 05:58:06;;;;;;;7.600001;5;;;;;;;5.29;59.26563;95606.5;;;;
2019/04/21 05:59:07;;;;;;;7.600001;5;;;;;;;5.29;59.26563;95606.5;;;;
2019/04/21 06:00:09;;;;;;;7.600001;5;;;;;;;5.29;59.26563;95606.5;;;;
2019/04/21 06:01:11;;;;;;;7.600001;5;;;;;;;5.29;59.26563;95606.5;;;;
2019/04/21 06:02:12;;;;;;;7.3;5.1;;;;;;;6.04;58.0166;95604.8;;;;